createdAt,value
2018-05-04T00:01:19.078Z,5.97
2018-05-04T00:03:46.611Z,6.10
2018-05-04T00:06:14.207Z,6.57
2018-05-04T00:08:41.735Z,6.40
2018-05-04T00:11:09.330Z,6.07
2018-05-04T00:13:37.543Z,5.97
2018-05-04T00:16:05.136Z,6.73
2018-05-04T00:18:32.886Z,6.23
2018-05-04T00:21:00.549Z,6.50
2018-05-04T00:23:28.067Z,7.27
2018-05-04T00:25:55.614Z,7.17
2018-05-04T00:28:23.231Z,6.87
2018-05-04T00:30:51.072Z,6.30
2018-05-04T00:33:18.610Z,7.62
2018-05-04T00:35:46.172Z,7.50
2018-05-04T00:38:13.856Z,8.65
2018-05-04T00:40:41.685Z,8.07
2018-05-04T00:43:09.933Z,8.37
2018-05-04T00:45:37.479Z,9.27
2018-05-04T00:48:05.235Z,8.47
2018-05-04T00:50:33.240Z,8.67
2018-05-04T00:53:01.056Z,9.30
2018-05-04T00:55:28.787Z,9.47
2018-05-04T00:57:56.305Z,9.47
2018-05-04T01:00:24.154Z,8.90
2018-05-04T01:02:51.770Z,9.10
2018-05-04T01:05:19.425Z,8.93
2018-05-04T01:07:46.961Z,9.30
2018-05-04T01:10:14.702Z,9.20
2018-05-04T01:12:42.479Z,8.53
2018-05-04T01:15:10.002Z,9.90
2018-05-04T01:17:37.546Z,10.23
2018-05-04T01:20:05.535Z,9.40
2018-05-04T01:22:33.222Z,8.93
2018-05-04T01:25:00.872Z,9.70
2018-05-04T01:27:28.526Z,10.10
2018-05-04T01:29:56.150Z,10.03
2018-05-04T01:32:23.982Z,9.23
2018-05-04T01:34:51.663Z,9.50
2018-05-04T01:37:19.484Z,9.63
2018-05-04T01:39:47.013Z,11.00
2018-05-04T01:42:14.926Z,10.33
2018-05-04T01:44:42.468Z,10.40
2018-05-04T01:47:10.007Z,10.20
2018-05-04T01:49:37.646Z,10.07
2018-05-04T01:52:05.301Z,9.73
2018-05-04T01:54:33.108Z,9.47
2018-05-04T01:57:00.751Z,10.00
2018-05-04T01:59:28.386Z,10.47
2018-05-04T02:01:56.368Z,11.03
2018-05-04T02:04:24.200Z,10.50
2018-05-04T02:06:52.833Z,10.85
2018-05-04T02:09:20.402Z,11.63
2018-05-04T02:11:47.961Z,10.87
2018-05-04T02:14:15.583Z,11.20
2018-05-04T02:16:43.342Z,12.23
2018-05-04T02:19:10.953Z,12.10
2018-05-04T02:21:38.573Z,11.93
2018-05-04T02:24:06.558Z,12.53
2018-05-04T02:26:34.173Z,13.07
2018-05-04T02:31:29.273Z,13.00
2018-05-04T02:33:56.842Z,13.50
2018-05-04T02:36:24.523Z,13.70
2018-05-04T02:38:52.148Z,13.80
2018-05-04T02:41:20.369Z,13.17
2018-05-04T02:43:47.921Z,13.30
2018-05-04T02:46:15.522Z,13.90
2018-05-04T02:48:43.151Z,14.60
2018-05-04T02:51:10.777Z,15.03
2018-05-04T02:53:38.342Z,14.33
2018-05-04T02:56:06.043Z,14.90
2018-05-04T02:58:33.826Z,15.75
2018-05-04T03:01:01.394Z,14.67
2018-05-04T03:03:28.937Z,14.37
2018-05-04T03:05:56.473Z,15.60
2018-05-04T03:08:24.033Z,14.73
2018-05-04T03:18:15.013Z,15.80
2018-05-04T03:23:09.991Z,14.90
2018-05-04T03:28:05.043Z,16.30
2018-05-04T03:30:33.054Z,15.80
2018-05-04T03:35:27.658Z,16.30
2018-05-04T03:40:22.302Z,16.33
2018-05-04T03:52:39.006Z,13.87
2018-05-04T03:55:06.758Z,13.00
2018-05-04T03:57:46.278Z,13.90
2018-05-04T04:00:25.620Z,14.90
2018-05-04T04:03:05.114Z,14.65
2018-05-04T04:05:32.993Z,14.40
2018-05-04T04:08:00.638Z,14.47
2018-05-04T04:10:28.328Z,14.73
2018-05-04T04:12:55.859Z,15.07
2018-05-04T04:15:23.528Z,15.10
2018-05-04T04:17:51.965Z,14.27
2018-05-04T04:20:19.562Z,14.48
2018-05-04T04:22:47.174Z,20.23
2018-05-04T04:25:14.779Z,15.37
2018-05-04T04:27:42.333Z,12.43
2018-05-04T04:30:09.978Z,14.87
2018-05-04T04:32:37.518Z,14.10
2018-05-04T04:35:05.126Z,13.15
2018-05-04T04:37:33.009Z,13.57
2018-05-04T04:40:00.878Z,13.33
2018-05-04T04:42:28.449Z,13.03
2018-05-04T04:44:56.439Z,13.87
2018-05-04T04:47:24.067Z,12.90
2018-05-04T04:49:51.638Z,12.50
2018-05-04T04:52:19.334Z,13.70
2018-05-04T04:54:46.868Z,13.77
2018-05-04T04:57:14.513Z,13.03
2018-05-04T04:59:42.243Z,14.37
2018-05-04T05:02:09.851Z,15.87
2018-05-04T05:04:37.565Z,14.33
2018-05-04T05:07:05.441Z,13.50
2018-05-04T05:09:33.159Z,13.63
2018-05-04T05:12:00.820Z,13.23
2018-05-04T05:14:28.403Z,13.65
2018-05-04T05:16:55.944Z,13.00
2018-05-04T05:19:23.819Z,12.30
2018-05-04T05:21:52.114Z,10.53
2018-05-04T05:24:19.581Z,11.87
2018-05-04T05:26:47.120Z,12.20
2018-05-04T05:29:14.820Z,12.17
2018-05-04T05:31:42.390Z,11.10
2018-05-04T05:34:10.056Z,12.20
2018-05-04T05:36:37.615Z,11.33
2018-05-04T05:39:06.092Z,10.80
2018-05-04T05:41:33.869Z,10.90
2018-05-04T05:44:01.450Z,10.80
2018-05-04T05:46:29.138Z,9.07
2018-05-04T05:49:01.289Z,8.87
2018-05-04T05:51:30.455Z,8.70
2018-05-04T05:53:58.043Z,9.97
2018-05-04T05:56:25.748Z,8.90
2018-05-04T05:58:53.275Z,15.57
2018-05-04T06:01:20.884Z,8.73
2018-05-04T06:03:48.669Z,9.40
2018-05-04T06:06:16.229Z,11.67
2018-05-04T06:08:43.924Z,13.10
2018-05-04T06:11:11.556Z,9.37
2018-05-04T06:13:39.187Z,8.80
2018-05-04T06:16:06.851Z,8.87
2018-05-04T06:18:34.404Z,8.85
2018-05-04T06:21:02.068Z,7.87
2018-05-04T06:23:29.604Z,9.05
2018-05-04T06:25:57.268Z,8.83
2018-05-04T06:28:25.485Z,8.70
2018-05-04T06:30:53.215Z,7.10
2018-05-04T06:33:20.741Z,8.20
2018-05-04T06:35:48.469Z,9.23
2018-05-04T06:38:16.056Z,7.77
2018-05-04T06:40:43.970Z,8.60
2018-05-04T06:43:11.855Z,6.90
2018-05-04T06:45:39.511Z,8.07
2018-05-04T06:48:07.038Z,7.10
2018-05-04T06:50:34.672Z,6.13
2018-05-04T06:53:02.334Z,6.37
2018-05-04T06:55:29.850Z,5.80
2018-05-04T06:57:57.489Z,5.40
2018-05-04T07:00:25.320Z,6.13
2018-05-04T07:02:52.938Z,7.40
2018-05-04T07:05:20.546Z,5.10
2018-05-04T07:07:48.133Z,6.37
2018-05-04T07:10:15.665Z,6.60
2018-05-04T07:12:43.229Z,5.43
2018-05-04T07:15:10.986Z,5.47
2018-05-04T07:17:38.686Z,5.63
2018-05-04T07:20:06.389Z,4.70
2018-05-04T07:22:33.975Z,5.80
2018-05-04T07:32:22.868Z,5.20
2018-05-04T07:34:50.416Z,5.90
2018-05-04T07:42:12.455Z,5.00
2018-05-04T07:44:40.014Z,4.93
2018-05-04T07:47:07.784Z,7.30
2018-05-04T07:49:35.420Z,5.27
2018-05-04T07:52:03.346Z,6.00
2018-05-04T07:54:31.547Z,5.65
2018-05-04T07:59:26.378Z,5.43
2018-05-04T08:04:21.119Z,5.40
2018-05-04T08:06:48.656Z,6.00
2018-05-04T08:16:38.065Z,6.80
2018-05-04T08:28:54.043Z,5.50
2018-05-04T08:36:15.776Z,4.17
2018-05-04T08:38:43.551Z,4.80
2018-05-04T08:41:11.155Z,5.37
2018-05-04T08:43:38.704Z,3.60
2018-05-04T08:46:06.369Z,4.43
2018-05-04T08:48:33.975Z,3.53
2018-05-04T08:51:01.740Z,3.90
2018-05-04T08:53:29.400Z,3.93
2018-05-04T08:55:57.069Z,4.30
2018-05-04T08:58:25.331Z,4.80
2018-05-04T09:00:52.876Z,4.40
2018-05-04T09:03:20.726Z,4.60
2018-05-04T09:05:48.504Z,4.93
2018-05-04T09:08:16.114Z,3.90
2018-05-04T09:10:43.859Z,4.37
2018-05-04T09:13:11.370Z,3.53
2018-05-04T09:15:38.980Z,4.10
2018-05-04T09:18:06.626Z,3.53
2018-05-04T09:20:34.216Z,4.60
2018-05-04T09:23:01.767Z,3.03
2018-05-04T09:25:29.472Z,3.87
2018-05-04T09:27:57.004Z,3.00
2018-05-04T09:30:24.615Z,2.97
2018-05-04T09:32:52.199Z,3.30
2018-05-04T09:35:19.770Z,3.45
2018-05-04T09:37:47.432Z,2.97
2018-05-04T09:40:15.087Z,3.47
2018-05-04T09:42:42.811Z,3.50
2018-05-04T09:45:10.359Z,2.78
2018-05-04T09:47:37.884Z,2.67
2018-05-04T09:50:05.456Z,2.60
2018-05-04T09:52:33.011Z,4.10
2018-05-04T09:55:00.691Z,2.90
2018-05-04T09:57:28.218Z,2.30
2018-05-04T09:59:55.867Z,2.50
2018-05-04T10:02:23.411Z,3.17
2018-05-04T10:04:50.945Z,2.55
2018-05-04T10:07:18.575Z,2.70
2018-05-04T10:09:46.098Z,2.40
2018-05-04T10:12:13.720Z,1.98
2018-05-04T10:14:41.250Z,2.80
2018-05-04T10:17:08.771Z,2.12
2018-05-04T10:19:36.291Z,2.05
2018-05-04T10:22:03.916Z,1.90
2018-05-04T10:24:31.432Z,2.28
2018-05-04T10:26:58.965Z,2.53
2018-05-04T10:29:26.482Z,1.98
2018-05-04T10:31:54.039Z,2.33
2018-05-04T10:34:21.606Z,2.30
2018-05-04T10:36:49.185Z,1.90
2018-05-04T10:39:16.881Z,2.35
2018-05-04T10:41:44.540Z,1.80
2018-05-04T10:44:12.160Z,2.30
2018-05-04T10:46:39.687Z,2.60
2018-05-04T10:49:07.427Z,2.72
2018-05-04T10:51:34.955Z,3.10
2018-05-04T10:54:02.480Z,2.90
2018-05-04T10:56:30.286Z,3.55
2018-05-04T10:58:57.996Z,3.30
2018-05-04T11:01:25.512Z,3.40
2018-05-04T11:03:54.312Z,3.37
2018-05-04T11:06:21.907Z,3.35
2018-05-04T11:08:49.560Z,3.33
2018-05-04T11:11:17.100Z,3.42
2018-05-04T11:13:44.812Z,2.83
2018-05-04T11:16:12.351Z,2.92
2018-05-04T11:18:39.999Z,2.95
2018-05-04T11:21:07.666Z,3.22
2018-05-04T11:23:35.295Z,2.72
2018-05-04T11:26:02.846Z,3.20
2018-05-04T11:28:30.687Z,3.23
2018-05-04T11:30:58.548Z,2.95
2018-05-04T11:33:26.300Z,4.37
2018-05-04T11:35:53.876Z,3.90
2018-05-04T11:38:21.423Z,4.70
2018-05-04T11:40:49.106Z,4.03
2018-05-04T11:43:16.656Z,4.07
2018-05-04T11:45:44.331Z,4.47
2018-05-04T11:48:12.107Z,5.93
2018-05-04T11:50:39.776Z,5.73
2018-05-04T11:53:07.356Z,5.00
2018-05-04T11:55:34.960Z,5.30
2018-05-04T11:58:02.633Z,6.10
2018-05-04T12:00:30.276Z,5.43
2018-05-04T12:02:57.941Z,4.90
2018-05-04T12:05:25.476Z,4.77
2018-05-04T12:07:53.011Z,4.50
2018-05-04T12:10:20.712Z,4.73
2018-05-04T12:12:48.327Z,4.57
2018-05-04T12:15:15.848Z,3.83
2018-05-04T12:17:44.231Z,3.80
2018-05-04T12:20:11.938Z,4.00
2018-05-04T12:22:39.613Z,4.87
2018-05-04T12:25:07.291Z,3.80
2018-05-04T12:27:35.125Z,4.70
2018-05-04T12:30:02.682Z,4.37
2018-05-04T12:32:30.545Z,4.60
2018-05-04T12:34:58.080Z,3.70
2018-05-04T12:37:25.711Z,4.60
2018-05-04T12:39:54.321Z,4.22
2018-05-04T12:42:21.966Z,5.23
2018-05-04T12:44:49.560Z,5.63
2018-05-04T12:47:17.114Z,4.23
2018-05-04T12:49:44.802Z,5.00
2018-05-04T12:52:12.631Z,4.87
2018-05-04T12:54:41.194Z,4.37
2018-05-04T12:57:07.946Z,5.20
2018-05-04T12:59:35.586Z,4.50
2018-05-04T13:02:03.320Z,4.93
2018-05-04T13:04:31.689Z,4.20
2018-05-04T13:06:59.848Z,5.00
2018-05-04T13:09:27.597Z,4.70
2018-05-04T13:11:55.391Z,4.97
2018-05-04T13:14:22.936Z,4.63
2018-05-04T13:16:50.597Z,4.50
2018-05-04T13:19:18.318Z,4.87
2018-05-04T13:21:46.517Z,5.40
2018-05-04T13:24:14.379Z,4.87
2018-05-04T13:26:41.960Z,5.40
2018-05-04T13:29:09.735Z,5.20
2018-05-04T13:31:37.300Z,4.43
2018-05-04T13:34:05.711Z,4.50
2018-05-04T13:36:33.300Z,5.07
2018-05-04T13:39:00.856Z,4.73
2018-05-04T13:41:28.442Z,4.93
2018-05-04T13:43:55.985Z,4.50
2018-05-04T13:46:23.558Z,4.27
2018-05-04T13:48:51.097Z,4.60
2018-05-04T13:51:18.763Z,4.57
2018-05-04T13:53:46.242Z,4.63
2018-05-04T13:56:13.805Z,5.30
2018-05-04T13:58:41.474Z,4.80
2018-05-04T14:01:09.127Z,5.68
2018-05-04T14:03:36.785Z,5.17
2018-05-04T14:06:04.553Z,4.90
2018-05-04T14:08:32.365Z,5.20
2018-05-04T14:10:59.889Z,5.10
2018-05-04T14:13:27.505Z,6.03
2018-05-04T14:15:55.492Z,5.80
2018-05-04T14:18:23.016Z,4.77
2018-05-04T14:20:50.633Z,3.67
2018-05-04T14:23:18.300Z,4.50
2018-05-04T14:25:45.832Z,5.27
2018-05-04T14:28:14.338Z,4.97
2018-05-04T14:30:41.871Z,5.50
2018-05-04T14:33:09.404Z,4.80
2018-05-04T14:35:36.961Z,5.07
2018-05-04T14:38:04.498Z,5.23
2018-05-04T14:40:32.066Z,4.63
2018-05-04T14:42:59.893Z,4.77
2018-05-04T14:45:27.529Z,5.77
2018-05-04T14:47:55.176Z,4.77
2018-05-04T14:50:22.896Z,5.53
2018-05-04T14:52:50.437Z,5.40
2018-05-04T14:55:18.122Z,6.00
2018-05-04T14:57:46.599Z,5.40
2018-05-04T15:00:15.418Z,5.20
2018-05-04T15:02:43.133Z,19.58
2018-05-04T15:05:10.676Z,6.47
2018-05-04T15:07:38.506Z,5.77
2018-05-04T15:10:06.058Z,6.27
2018-05-04T15:12:33.798Z,6.53
2018-05-04T15:15:01.547Z,5.47
2018-05-04T15:17:29.077Z,5.73
2018-05-04T15:19:56.718Z,5.80
2018-05-04T15:22:24.479Z,5.40
2018-05-04T15:24:52.114Z,5.97
2018-05-04T15:27:19.651Z,6.20
2018-05-04T15:29:47.208Z,6.00
2018-05-04T15:32:14.906Z,5.63
2018-05-04T15:34:42.512Z,6.13
2018-05-04T15:37:12.551Z,7.10
2018-05-04T15:39:40.214Z,6.00
2018-05-04T15:42:07.968Z,6.40
2018-05-04T15:44:35.543Z,5.80
2018-05-04T15:47:03.259Z,5.40
2018-05-04T15:49:30.847Z,5.90
2018-05-04T15:52:07.119Z,5.73
2018-05-04T15:54:34.964Z,5.03
2018-05-04T15:57:02.509Z,5.90
2018-05-04T15:59:30.163Z,5.50
2018-05-04T16:01:57.834Z,5.12
2018-05-04T16:04:25.383Z,6.20
2018-05-04T16:06:53.641Z,4.90
2018-05-04T16:09:21.268Z,6.20
2018-05-04T16:11:48.918Z,5.97
2018-05-04T16:14:16.463Z,5.73
2018-05-04T16:16:44.031Z,5.10
2018-05-04T16:19:11.661Z,5.20
2018-05-04T16:21:39.373Z,5.87
2018-05-04T16:24:06.917Z,5.07
2018-05-04T16:26:34.648Z,5.40
2018-05-04T16:29:02.208Z,6.00
2018-05-04T16:31:30.020Z,5.70
2018-05-04T16:33:57.563Z,6.10
2018-05-04T16:36:25.291Z,5.72
2018-05-04T16:38:52.836Z,5.50
2018-05-04T16:41:20.536Z,5.10
2018-05-04T16:43:48.452Z,5.27
2018-05-04T16:46:21.562Z,5.73
2018-05-04T16:48:54.797Z,5.60
2018-05-04T16:51:22.329Z,5.57
2018-05-04T16:53:49.971Z,4.90
2018-05-04T16:56:17.658Z,5.70
2018-05-04T16:58:45.223Z,5.47
2018-05-04T17:01:12.927Z,5.83
2018-05-04T17:03:40.467Z,5.13
2018-05-04T17:06:08.081Z,5.50
2018-05-04T17:08:35.666Z,5.00
2018-05-04T17:11:03.592Z,5.63
2018-05-04T17:13:31.151Z,4.93
2018-05-04T17:15:58.755Z,6.20
2018-05-04T17:18:26.404Z,6.12
2018-05-04T17:20:54.063Z,4.90
2018-05-04T17:23:21.689Z,5.87
2018-05-04T17:25:49.348Z,5.53
2018-05-04T17:28:16.888Z,5.10
2018-05-04T17:30:44.557Z,5.90
2018-05-04T17:33:12.119Z,5.30
2018-05-04T17:35:39.778Z,6.10
2018-05-04T17:38:07.637Z,5.00
2018-05-04T17:40:35.418Z,4.80
2018-05-04T17:43:03.412Z,5.80
2018-05-04T17:45:31.182Z,4.37
2018-05-04T17:47:58.719Z,4.53
2018-05-04T17:50:26.262Z,4.50
2018-05-04T17:52:53.844Z,4.80
2018-05-04T17:55:21.377Z,4.83
2018-05-04T17:57:48.926Z,4.97
2018-05-04T18:00:16.488Z,4.03
2018-05-04T18:02:44.183Z,4.60
2018-05-04T18:05:11.984Z,4.03
2018-05-04T18:07:39.613Z,4.20
2018-05-04T18:10:07.155Z,3.92
2018-05-04T18:12:34.729Z,3.57
2018-05-04T18:15:02.313Z,3.70
2018-05-04T18:17:29.847Z,3.60
2018-05-04T18:19:57.559Z,3.30
2018-05-04T18:22:25.159Z,2.97
2018-05-04T18:24:52.863Z,3.60
2018-05-04T18:27:20.592Z,3.13
2018-05-04T18:29:48.234Z,2.73
2018-05-04T18:32:15.815Z,3.00
2018-05-04T18:34:43.349Z,3.53
2018-05-04T18:37:11.048Z,4.78
2018-05-04T18:39:38.591Z,2.62
2018-05-04T18:42:06.164Z,3.03
2018-05-04T18:44:33.839Z,2.60
2018-05-04T18:47:01.428Z,3.37
2018-05-04T18:49:28.995Z,2.93
2018-05-04T18:51:56.729Z,3.23
2018-05-04T18:54:24.431Z,2.30
2018-05-04T18:56:52.214Z,2.97
2018-05-04T18:59:20.755Z,2.20
2018-05-04T19:01:48.478Z,3.13
2018-05-04T19:04:16.019Z,3.00
2018-05-04T19:06:43.704Z,3.27
2018-05-04T19:09:11.645Z,2.90
2018-05-04T19:11:39.501Z,3.00
2018-05-04T19:14:08.364Z,2.80
2018-05-04T19:16:35.897Z,2.60
2018-05-04T19:19:03.594Z,2.60
2018-05-04T19:21:31.335Z,2.70
2018-05-04T19:23:59.022Z,2.90
2018-05-04T19:26:26.598Z,2.70
2018-05-04T19:28:54.153Z,3.10
2018-05-04T19:31:22.624Z,18.80
2018-05-04T19:33:50.240Z,6.10
2018-05-04T19:36:17.901Z,3.10
2018-05-04T19:38:45.525Z,2.80
2018-05-04T19:41:13.184Z,2.50
2018-05-04T19:43:41.111Z,2.70
2018-05-04T19:46:08.935Z,2.70
2018-05-04T19:48:37.335Z,2.37
2018-05-04T19:51:04.856Z,2.83
2018-05-04T19:53:32.719Z,2.47
2018-05-04T19:56:00.437Z,2.97
2018-05-04T19:58:27.955Z,2.60
2018-05-04T20:00:55.489Z,3.20
2018-05-04T20:03:23.050Z,2.83
2018-05-04T20:05:50.615Z,3.77
2018-05-04T20:08:18.464Z,3.00
2018-05-04T20:10:46.308Z,3.30
2018-05-04T20:13:14.060Z,2.80
2018-05-04T20:15:41.898Z,3.35
2018-05-04T20:18:09.730Z,3.33
2018-05-04T20:20:37.304Z,2.50
2018-05-04T20:23:05.118Z,2.97
2018-05-04T20:25:32.935Z,2.73
2018-05-04T20:28:00.600Z,3.20
2018-05-04T20:30:28.151Z,2.63
2018-05-04T20:32:55.776Z,2.53
2018-05-04T20:35:23.560Z,2.83
2018-05-04T20:37:51.184Z,2.40
2018-05-04T20:40:19.285Z,2.90
2018-05-04T20:42:46.859Z,2.40
2018-05-04T20:45:14.584Z,2.13
2018-05-04T20:47:42.183Z,2.40
2018-05-04T20:50:10.002Z,2.37
2018-05-04T20:52:37.685Z,2.80
2018-05-04T20:55:05.349Z,2.80
2018-05-04T20:57:32.924Z,2.40
2018-05-04T21:00:00.731Z,2.50
2018-05-04T21:02:28.253Z,2.40
2018-05-04T21:04:56.158Z,1.90
2018-05-04T21:07:23.969Z,2.57
2018-05-04T21:09:52.995Z,2.40
2018-05-04T21:12:20.679Z,2.17
2018-05-04T21:14:48.258Z,2.30
2018-05-04T21:17:16.079Z,2.67
2018-05-04T21:19:43.644Z,2.07
2018-05-04T21:22:11.271Z,2.30
2018-05-04T21:24:39.025Z,1.90
2018-05-04T21:27:06.733Z,2.20
2018-05-04T21:29:34.670Z,2.60
2018-05-04T21:32:02.404Z,1.93
2018-05-04T21:34:30.095Z,2.30
2018-05-04T21:36:57.898Z,2.28
2018-05-04T21:39:25.710Z,2.33
2018-05-04T21:41:53.509Z,2.60
2018-05-04T21:44:21.096Z,2.67
2018-05-04T21:46:48.759Z,2.50
2018-05-04T21:49:16.653Z,2.13
2018-05-04T21:51:44.330Z,1.90
2018-05-04T21:54:12.041Z,2.10
2018-05-04T21:56:39.959Z,2.35
2018-05-04T21:59:08.259Z,1.80
2018-05-04T22:01:35.827Z,1.90
2018-05-04T22:04:03.621Z,1.70
2018-05-04T22:06:31.249Z,1.90
2018-05-04T22:08:58.836Z,2.50
2018-05-04T22:11:26.446Z,1.90
2018-05-04T22:13:54.066Z,2.03
2018-05-04T22:16:21.596Z,1.87
2018-05-04T22:18:49.975Z,1.90
2018-05-04T22:21:17.604Z,1.80
2018-05-04T22:23:45.144Z,2.30
2018-05-04T22:26:12.700Z,2.07
2018-05-04T22:28:40.325Z,2.33
2018-05-04T22:31:07.899Z,1.80
2018-05-04T22:33:35.600Z,2.00
2018-05-04T22:36:03.407Z,2.07
2018-05-04T22:38:31.239Z,2.10
2018-05-04T22:40:59.015Z,2.00
2018-05-04T22:43:26.653Z,2.43
2018-05-04T22:45:54.600Z,2.10
2018-05-04T22:48:22.365Z,2.70
2018-05-04T22:50:50.035Z,2.27
2018-05-04T22:53:17.781Z,2.40
2018-05-04T22:55:45.405Z,2.80
2018-05-04T22:58:13.200Z,2.33
2018-05-04T23:00:40.781Z,2.60
2018-05-04T23:03:08.679Z,2.50
2018-05-04T23:05:36.428Z,2.30
2018-05-04T23:08:04.052Z,2.20
2018-05-04T23:10:32.235Z,2.53
2018-05-04T23:12:59.961Z,2.10
2018-05-04T23:15:28.398Z,1.90
2018-05-04T23:17:56.221Z,2.50
2018-05-04T23:20:24.104Z,2.00
2018-05-04T23:22:51.764Z,2.17
2018-05-04T23:25:20.355Z,2.73
2018-05-04T23:27:47.956Z,2.83
2018-05-04T23:30:15.834Z,1.87
2018-05-04T23:32:43.545Z,2.37
2018-05-04T23:35:12.496Z,2.80
2018-05-04T23:37:40.041Z,2.50
2018-05-04T23:40:07.836Z,2.50
2018-05-04T23:42:35.513Z,2.87
2018-05-04T23:45:03.070Z,3.00
2018-05-04T23:47:31.340Z,2.97
2018-05-04T23:49:59.030Z,2.77
2018-05-04T23:52:26.568Z,2.40
2018-05-04T23:54:54.465Z,3.23
2018-05-04T23:57:22.296Z,2.43
2018-05-04T23:59:50.010Z,1.97
